createdAt,value
2019-05-29T00:01:44.022Z,3.40
2019-05-29T00:04:19.666Z,3.10
2019-05-29T00:06:54.969Z,1.57
2019-05-29T00:09:32.071Z,2.27
2019-05-29T00:12:10.538Z,5.25
2019-05-29T00:14:49.428Z,11.50
2019-05-29T00:17:22.345Z,12.18
2019-05-29T00:19:58.182Z,6.12
2019-05-29T00:25:10.495Z,1.75
2019-05-29T00:27:45.728Z,2.10
2019-05-29T00:30:21.426Z,2.00
2019-05-29T00:32:57.457Z,2.17
2019-05-29T00:35:35.014Z,2.12
2019-05-29T00:38:12.566Z,2.20
2019-05-29T00:40:49.822Z,2.22
2019-05-29T00:43:25.895Z,3.80
2019-05-29T00:46:01.690Z,2.90
2019-05-29T00:48:37.291Z,4.40
2019-05-29T00:51:13.003Z,7.78
2019-05-29T00:53:48.748Z,7.40
2019-05-29T00:56:26.209Z,4.05
2019-05-29T00:59:01.812Z,5.20
2019-05-29T01:01:37.764Z,3.20
2019-05-29T01:04:13.700Z,2.92
2019-05-29T01:06:49.487Z,3.22
2019-05-29T01:09:25.537Z,2.75
2019-05-29T01:12:01.293Z,2.87
2019-05-29T01:14:49.303Z,3.30
2019-05-29T01:17:13.715Z,21.40
2019-05-29T01:19:49.227Z,30.17
2019-05-29T01:22:25.079Z,10.38
2019-05-29T01:25:00.462Z,16.30
2019-05-29T01:27:36.846Z,6.78
2019-05-29T01:30:13.571Z,19.98
2019-05-29T01:32:49.957Z,4.53
2019-05-29T01:35:25.621Z,7.92
2019-05-29T01:38:03.323Z,3.05
2019-05-29T01:40:38.617Z,2.58
2019-05-29T01:43:15.333Z,3.05
2019-05-29T01:45:52.199Z,3.15
2019-05-29T01:48:28.232Z,2.50
2019-05-29T01:51:04.480Z,3.05
2019-05-29T01:53:40.700Z,2.95
2019-05-29T01:56:17.580Z,3.77
2019-05-29T01:58:53.053Z,3.42
2019-05-29T02:01:30.526Z,42.33
2019-05-29T02:04:05.934Z,11.95
2019-05-29T02:06:44.339Z,4.15
2019-05-29T02:09:22.127Z,3.98
2019-05-29T02:12:00.209Z,3.60
2019-05-29T02:14:43.940Z,2.92
2019-05-29T02:17:21.718Z,12.00
2019-05-29T02:19:57.122Z,3.02
2019-05-29T02:22:34.550Z,2.85
2019-05-29T02:25:15.690Z,2.92
2019-05-29T02:27:49.196Z,2.75
2019-05-29T02:30:30.287Z,2.73
2019-05-29T02:33:04.204Z,6.22
2019-05-29T02:35:39.576Z,3.10
2019-05-29T02:38:16.189Z,3.05
2019-05-29T02:40:51.984Z,2.98
2019-05-29T02:43:29.959Z,4.30
2019-05-29T02:46:07.569Z,2.60
2019-05-29T02:48:44.999Z,3.55
2019-05-29T02:51:24.018Z,3.50
2019-05-29T02:53:59.357Z,7.35
2019-05-29T02:56:36.398Z,2.90
2019-05-29T02:59:14.014Z,3.35
2019-05-29T03:01:51.483Z,2.87
2019-05-29T03:04:30.066Z,2.42
2019-05-29T03:07:09.856Z,2.72
2019-05-29T03:09:47.280Z,2.52
2019-05-29T03:12:27.180Z,3.22
2019-05-29T03:15:06.965Z,2.42
2019-05-29T03:17:47.459Z,3.02
2019-05-29T03:20:23.907Z,2.58
2019-05-29T03:23:00.879Z,2.80
2019-05-29T03:25:38.604Z,2.87
2019-05-29T03:28:16.744Z,2.70
2019-05-29T03:30:53.616Z,2.80
2019-05-29T03:33:36.102Z,2.70
2019-05-29T03:36:09.181Z,3.00
2019-05-29T03:38:44.592Z,2.52
2019-05-29T03:41:23.496Z,3.20
2019-05-29T03:43:58.903Z,2.55
2019-05-29T03:46:43.942Z,3.25
2019-05-29T03:49:14.553Z,3.80
2019-05-29T03:51:51.922Z,3.67
2019-05-29T03:54:30.564Z,2.83
2019-05-29T03:57:06.500Z,3.05
2019-05-29T03:59:46.281Z,2.73
2019-05-29T04:02:23.450Z,3.02
2019-05-29T04:05:01.691Z,2.80
2019-05-29T04:07:39.260Z,3.22
2019-05-29T04:10:16.872Z,3.08
2019-05-29T04:12:52.654Z,2.95
2019-05-29T04:15:31.497Z,4.07
2019-05-29T04:18:19.386Z,4.28
2019-05-29T04:20:56.516Z,3.50
2019-05-29T04:23:42.195Z,4.03
2019-05-29T04:26:23.333Z,4.05
2019-05-29T04:29:05.124Z,3.83
2019-05-29T04:31:40.982Z,3.60
2019-05-29T04:34:31.659Z,3.90
2019-05-29T04:37:11.088Z,3.92
2019-05-29T04:39:47.081Z,4.53
2019-05-29T04:42:28.889Z,4.78
2019-05-29T04:45:03.933Z,4.85
2019-05-29T04:47:41.333Z,4.62
2019-05-29T04:50:20.781Z,4.33
2019-05-29T04:53:16.400Z,4.83
2019-05-29T04:55:56.730Z,4.35
2019-05-29T04:58:34.907Z,5.17
2019-05-29T05:01:14.864Z,5.20
2019-05-29T05:03:54.901Z,6.37
2019-05-29T05:06:37.292Z,5.33
2019-05-29T05:09:16.107Z,5.28
2019-05-29T05:11:57.605Z,5.25
2019-05-29T05:14:35.656Z,5.22
2019-05-29T05:17:25.183Z,5.97
2019-05-29T05:22:26.705Z,6.97
2019-05-29T05:25:14.785Z,5.60
2019-05-29T05:27:52.852Z,6.78
2019-05-29T05:30:32.331Z,6.37
2019-05-29T05:33:12.758Z,6.22
2019-05-29T05:35:53.585Z,6.47
2019-05-29T05:38:30.597Z,6.47
2019-05-29T05:41:07.478Z,6.83
2019-05-29T05:46:17.620Z,8.10
2019-05-29T05:48:56.010Z,7.65
2019-05-29T05:51:42.781Z,7.30
2019-05-29T05:54:15.651Z,6.65
2019-05-29T05:57:00.116Z,11.53
2019-05-29T05:59:39.908Z,9.15
2019-05-29T06:02:19.985Z,6.95
2019-05-29T06:04:59.037Z,7.25
2019-05-29T06:07:40.249Z,6.75
2019-05-29T06:10:17.035Z,6.55
2019-05-29T06:12:54.654Z,6.90
2019-05-29T06:15:29.752Z,6.97
2019-05-29T06:18:20.419Z,6.30
2019-05-29T06:20:43.829Z,7.35
2019-05-29T06:23:20.978Z,7.42
2019-05-29T06:26:00.154Z,6.97
2019-05-29T06:28:35.544Z,7.47
2019-05-29T06:31:11.286Z,6.60
2019-05-29T06:33:48.288Z,7.20
2019-05-29T06:36:25.595Z,7.12
2019-05-29T06:39:05.991Z,7.55
2019-05-29T06:41:42.022Z,7.28
2019-05-29T06:44:18.769Z,7.72
2019-05-29T06:49:31.707Z,7.40
2019-05-29T06:52:09.237Z,8.33
2019-05-29T06:54:45.347Z,7.67
2019-05-29T06:57:25.875Z,7.70
2019-05-29T07:00:09.281Z,7.28
2019-05-29T07:02:47.611Z,7.20
2019-05-29T07:05:25.055Z,7.58
2019-05-29T07:08:18.253Z,7.67
2019-05-29T07:10:52.089Z,7.25
2019-05-29T07:13:29.195Z,7.40
2019-05-29T07:16:14.528Z,7.08
2019-05-29T07:19:24.148Z,7.35
2019-05-29T07:24:06.919Z,7.45
2019-05-29T07:26:45.467Z,7.72
2019-05-29T07:29:22.510Z,8.03
2019-05-29T07:32:00.129Z,7.05
2019-05-29T07:34:49.618Z,8.20
2019-05-29T07:37:14.120Z,8.03
2019-05-29T07:40:00.320Z,11.38
2019-05-29T07:42:39.424Z,9.95
2019-05-29T07:45:30.655Z,8.93
2019-05-29T07:48:12.804Z,9.73
2019-05-29T07:50:49.906Z,8.45
2019-05-29T07:53:26.215Z,9.05
2019-05-29T07:56:03.562Z,9.70
2019-05-29T07:58:41.994Z,15.90
2019-05-29T08:04:16.557Z,13.90
2019-05-29T08:06:55.077Z,12.75
2019-05-29T08:09:34.222Z,12.15
2019-05-29T08:12:10.072Z,10.65
2019-05-29T08:14:53.146Z,10.68
2019-05-29T08:17:30.577Z,11.80
2019-05-29T08:20:07.867Z,14.05
2019-05-29T08:22:48.555Z,12.45
2019-05-29T08:25:28.601Z,12.68
2019-05-29T08:28:03.705Z,13.43
2019-05-29T08:30:41.040Z,15.27
2019-05-29T08:33:18.121Z,14.73
2019-05-29T08:36:00.358Z,13.10
2019-05-29T08:38:37.207Z,12.23
2019-05-29T08:41:16.289Z,13.25
2019-05-29T08:43:54.236Z,12.90
2019-05-29T08:46:33.296Z,13.70
2019-05-29T08:49:10.952Z,11.18
2019-05-29T08:51:47.982Z,9.60
2019-05-29T08:54:25.188Z,10.48
2019-05-29T08:57:04.807Z,11.75
2019-05-29T08:59:44.340Z,10.43
2019-05-29T09:02:22.355Z,11.00
2019-05-29T09:04:58.566Z,22.70
2019-05-29T09:07:34.194Z,10.35
2019-05-29T09:10:13.180Z,8.65
2019-05-29T09:12:57.059Z,7.83
2019-05-29T09:15:27.322Z,6.35
2019-05-29T09:18:04.335Z,5.20
2019-05-29T09:21:01.759Z,5.47
2019-05-29T09:23:20.938Z,5.95
2019-05-29T09:26:13.595Z,5.35
2019-05-29T09:28:34.685Z,4.83
2019-05-29T09:31:10.416Z,5.85
2019-05-29T09:33:45.824Z,10.08
2019-05-29T09:36:24.824Z,4.85
2019-05-29T09:39:00.923Z,4.78
2019-05-29T09:41:37.622Z,7.17
2019-05-29T09:44:28.532Z,6.58
2019-05-29T09:46:56.472Z,7.42
2019-05-29T09:49:33.916Z,9.60
2019-05-29T09:52:13.426Z,13.80
2019-05-29T09:54:53.013Z,7.35
2019-05-29T09:57:32.529Z,5.60
2019-05-29T10:00:08.698Z,4.53
2019-05-29T10:02:46.665Z,4.60
2019-05-29T10:05:22.396Z,4.62
2019-05-29T10:07:59.639Z,7.70
2019-05-29T10:10:36.816Z,5.12
2019-05-29T10:13:12.957Z,12.68
2019-05-29T10:15:50.228Z,5.15
2019-05-29T10:18:32.484Z,5.20
2019-05-29T10:21:03.266Z,5.20
2019-05-29T10:23:39.320Z,4.30
2019-05-29T10:26:24.360Z,4.33
2019-05-29T10:29:08.258Z,4.72
2019-05-29T10:31:37.886Z,4.37
2019-05-29T10:34:15.662Z,4.47
2019-05-29T10:36:54.738Z,4.87
2019-05-29T10:39:32.459Z,34.55
2019-05-29T10:42:08.038Z,12.82
2019-05-29T10:44:44.883Z,6.00
2019-05-29T10:47:21.301Z,4.53
2019-05-29T10:49:59.125Z,7.67
2019-05-29T10:52:35.997Z,12.73
2019-05-29T10:55:13.201Z,13.18
2019-05-29T10:57:50.799Z,8.10
2019-05-29T11:00:27.266Z,7.90
2019-05-29T11:03:06.236Z,7.50
2019-05-29T11:06:01.160Z,5.75
2019-05-29T11:08:39.619Z,6.53
2019-05-29T11:11:20.740Z,6.90
2019-05-29T11:13:57.809Z,7.28
2019-05-29T11:16:39.612Z,6.42
2019-05-29T11:19:14.761Z,6.20
2019-05-29T11:21:59.571Z,6.95
2019-05-29T11:24:32.176Z,6.37
2019-05-29T11:27:11.261Z,6.27
2019-05-29T11:29:50.437Z,6.75
2019-05-29T11:32:27.232Z,6.28
2019-05-29T11:35:07.234Z,6.72
2019-05-29T11:37:47.198Z,5.90
2019-05-29T11:40:22.455Z,6.00
2019-05-29T11:42:59.917Z,6.07
2019-05-29T11:45:35.916Z,5.75
2019-05-29T11:48:12.523Z,6.25
2019-05-29T11:50:54.157Z,5.87
2019-05-29T11:53:30.286Z,5.60
2019-05-29T11:56:06.056Z,5.67
2019-05-29T11:58:43.789Z,5.78
2019-05-29T12:01:19.513Z,7.30
2019-05-29T12:04:18.110Z,7.03
2019-05-29T12:06:39.296Z,8.63
2019-05-29T12:09:32.246Z,7.83
2019-05-29T12:11:57.999Z,7.45
2019-05-29T12:14:58.276Z,6.45
2019-05-29T12:17:22.835Z,7.03
2019-05-29T12:22:36.129Z,6.60
2019-05-29T12:25:13.281Z,5.33
2019-05-29T12:27:48.784Z,5.83
2019-05-29T12:30:28.256Z,5.85
2019-05-29T12:33:05.310Z,5.55
2019-05-29T12:35:41.846Z,5.40
2019-05-29T12:38:19.079Z,5.95
2019-05-29T12:40:57.698Z,5.40
2019-05-29T12:43:34.891Z,5.40
2019-05-29T12:46:12.645Z,5.95
2019-05-29T12:48:53.322Z,5.80
2019-05-29T12:51:31.602Z,6.10
2019-05-29T12:54:09.261Z,5.25
2019-05-29T12:56:51.410Z,5.62
2019-05-29T12:59:31.229Z,5.00
2019-05-29T13:02:21.469Z,5.10
2019-05-29T13:05:11.122Z,4.28
2019-05-29T13:07:43.020Z,4.17
2019-05-29T13:10:31.232Z,5.10
2019-05-29T13:13:11.718Z,4.90
2019-05-29T13:15:47.598Z,4.70
2019-05-29T13:18:29.632Z,5.33
2019-05-29T13:21:09.038Z,5.90
2019-05-29T13:23:49.903Z,6.90
2019-05-29T13:26:28.106Z,7.78
2019-05-29T13:29:07.797Z,7.70
2019-05-29T13:31:45.197Z,10.58
2019-05-29T13:34:24.626Z,11.65
2019-05-29T13:37:04.784Z,11.20
2019-05-29T13:39:42.295Z,11.38
2019-05-29T13:42:26.052Z,11.90
2019-05-29T13:45:06.743Z,13.50
2019-05-29T13:47:46.711Z,11.85
2019-05-29T13:50:28.737Z,11.80
2019-05-29T13:53:14.103Z,10.70
2019-05-29T13:55:54.845Z,10.88
2019-05-29T13:58:50.285Z,12.18
2019-05-29T14:01:38.258Z,11.45
2019-05-29T14:04:22.047Z,12.15
2019-05-29T14:06:58.500Z,13.22
2019-05-29T14:09:38.200Z,12.73
2019-05-29T14:12:21.347Z,11.78
2019-05-29T14:14:57.308Z,11.20
2019-05-29T14:17:38.062Z,11.53
2019-05-29T14:20:17.023Z,11.93
2019-05-29T14:23:01.246Z,12.43
2019-05-29T14:25:39.634Z,11.28
2019-05-29T14:28:19.339Z,10.40
2019-05-29T14:31:01.886Z,11.08
2019-05-29T14:33:48.314Z,10.90
2019-05-29T14:36:33.590Z,10.80
2019-05-29T14:39:13.580Z,11.53
2019-05-29T14:47:43.047Z,10.05
2019-05-29T14:50:30.261Z,10.85
2019-05-29T14:53:24.543Z,12.55
2019-05-29T14:56:02.528Z,12.58
2019-05-29T14:58:41.585Z,10.95
2019-05-29T15:01:21.879Z,11.50
2019-05-29T15:04:17.131Z,10.80
2019-05-29T15:06:59.034Z,10.85
2019-05-29T15:09:43.106Z,10.55
2019-05-29T15:12:31.603Z,10.15
2019-05-29T15:15:11.435Z,10.72
2019-05-29T15:17:52.872Z,10.58
2019-05-29T15:20:37.607Z,11.40
2019-05-29T15:23:20.897Z,10.10
2019-05-29T15:26:07.495Z,10.45
2019-05-29T15:28:47.947Z,11.70
2019-05-29T15:34:22.046Z,11.00
2019-05-29T15:36:57.450Z,11.22
2019-05-29T15:39:42.811Z,10.47
2019-05-29T15:42:32.553Z,10.40
2019-05-29T15:45:27.780Z,11.40
2019-05-29T15:51:21.740Z,10.98
2019-05-29T15:54:07.161Z,11.25
2019-05-29T15:56:52.886Z,11.57
2019-05-29T15:59:32.825Z,10.18
2019-05-29T16:02:20.484Z,10.65
2019-05-29T16:04:57.799Z,10.63
2019-05-29T16:07:40.580Z,10.60
2019-05-29T16:10:20.995Z,11.10
2019-05-29T16:12:58.581Z,10.63
2019-05-29T16:15:46.831Z,11.25
2019-05-29T16:18:29.043Z,10.25
2019-05-29T16:21:08.421Z,11.15
2019-05-29T16:23:49.955Z,10.98
2019-05-29T16:26:26.723Z,11.93
2019-05-29T16:32:08.169Z,12.18
2019-05-29T16:34:53.667Z,12.13
2019-05-29T16:37:30.829Z,11.73
2019-05-29T16:42:58.033Z,14.47
2019-05-29T16:45:36.474Z,14.28
2019-05-29T16:48:22.710Z,13.88
2019-05-29T16:51:01.338Z,16.40
2019-05-29T16:53:37.852Z,18.92
2019-05-29T16:56:18.979Z,18.92
2019-05-29T16:59:03.735Z,18.60
2019-05-29T17:01:40.391Z,17.30
2019-05-29T17:04:16.147Z,16.75
2019-05-29T17:06:54.241Z,17.02
2019-05-29T17:09:31.906Z,16.67
2019-05-29T17:12:10.854Z,17.50
2019-05-29T17:14:50.689Z,17.10
2019-05-29T17:17:30.294Z,16.95
2019-05-29T17:20:09.157Z,16.48
2019-05-29T17:22:46.033Z,15.65
2019-05-29T17:28:22.498Z,15.32
2019-05-29T17:31:02.170Z,14.85
2019-05-29T17:33:36.012Z,15.83
2019-05-29T17:36:13.234Z,15.03
2019-05-29T17:38:51.197Z,16.80
2019-05-29T17:41:30.905Z,15.18
2019-05-29T17:44:07.911Z,14.55
2019-05-29T17:46:47.538Z,15.00
2019-05-29T17:49:33.037Z,14.70
2019-05-29T17:52:04.302Z,15.35
2019-05-29T17:54:44.840Z,15.25
2019-05-29T17:57:21.830Z,13.68
2019-05-29T17:59:58.915Z,13.68
2019-05-29T18:02:50.917Z,12.35
2019-05-29T18:05:11.783Z,13.25
2019-05-29T18:07:49.286Z,12.45
2019-05-29T18:10:25.703Z,12.85
2019-05-29T18:13:02.670Z,12.58
2019-05-29T18:15:39.655Z,13.40
2019-05-29T18:18:17.478Z,12.35
2019-05-29T18:23:28.187Z,11.88
2019-05-29T18:26:05.469Z,11.80
2019-05-29T18:28:41.134Z,10.78
2019-05-29T18:31:16.561Z,11.05
2019-05-29T18:33:53.468Z,11.28
2019-05-29T18:36:29.690Z,10.60
2019-05-29T18:39:05.604Z,11.60
2019-05-29T18:41:41.026Z,11.00
2019-05-29T18:44:16.678Z,10.40
2019-05-29T18:46:56.804Z,10.65
2019-05-29T18:49:32.868Z,10.45
2019-05-29T18:52:10.248Z,10.13
2019-05-29T18:54:48.529Z,10.00
2019-05-29T18:57:25.393Z,9.50
2019-05-29T19:02:37.288Z,10.25
2019-05-29T19:05:13.363Z,10.10
2019-05-29T19:07:50.407Z,9.93
2019-05-29T19:10:28.432Z,9.63
2019-05-29T19:13:05.545Z,9.10
2019-05-29T19:15:42.779Z,10.13
2019-05-29T19:18:19.743Z,9.93
2019-05-29T19:20:55.443Z,8.93
2019-05-29T19:23:30.884Z,9.35
2019-05-29T19:26:07.077Z,9.13
2019-05-29T19:28:42.642Z,9.48
2019-05-29T19:31:18.350Z,8.85
2019-05-29T19:33:53.837Z,9.05
2019-05-29T19:36:31.762Z,9.55
2019-05-29T19:39:11.752Z,9.73
2019-05-29T19:41:49.179Z,8.18
2019-05-29T19:44:26.664Z,9.88
2019-05-29T19:47:02.344Z,9.23
2019-05-29T19:49:38.936Z,9.70
2019-05-29T19:52:16.376Z,9.75
2019-05-29T19:54:52.383Z,9.38
2019-05-29T19:57:29.926Z,8.55
2019-05-29T20:00:06.625Z,8.43
2019-05-29T20:02:44.640Z,8.15
2019-05-29T20:05:22.087Z,9.05
2019-05-29T20:07:59.100Z,8.40
2019-05-29T20:10:35.382Z,9.13
2019-05-29T20:13:11.127Z,10.00
2019-05-29T20:15:48.256Z,11.00
2019-05-29T20:18:29.969Z,10.50
2019-05-29T20:21:06.994Z,10.23
2019-05-29T20:23:42.655Z,8.98
2019-05-29T20:26:18.129Z,9.00
2019-05-29T20:28:56.085Z,8.93
2019-05-29T20:31:32.385Z,8.70
2019-05-29T20:34:08.371Z,8.20
2019-05-29T20:36:43.792Z,8.08
2019-05-29T20:39:19.632Z,7.92
2019-05-29T20:41:55.002Z,7.12
2019-05-29T20:44:30.571Z,9.13
2019-05-29T20:47:06.289Z,7.97
2019-05-29T20:49:42.298Z,8.30
2019-05-29T20:52:17.725Z,7.90
2019-05-29T20:54:57.509Z,7.45
2019-05-29T20:57:30.094Z,8.38
2019-05-29T21:00:07.708Z,8.70
2019-05-29T21:02:43.260Z,8.75
2019-05-29T21:05:19.192Z,9.53
2019-05-29T21:07:54.574Z,9.08
2019-05-29T21:10:30.215Z,10.10
2019-05-29T21:13:05.477Z,9.55
2019-05-29T21:15:41.830Z,9.33
2019-05-29T21:18:17.327Z,9.10
2019-05-29T21:20:52.976Z,8.68
2019-05-29T21:23:28.513Z,7.85
2019-05-29T21:26:03.989Z,8.60
2019-05-29T21:28:44.680Z,9.05
2019-05-29T21:31:17.347Z,8.25
2019-05-29T21:33:52.829Z,10.20
2019-05-29T21:36:33.082Z,10.60
2019-05-29T21:39:10.239Z,11.50
2019-05-29T21:41:46.623Z,23.67
2019-05-29T21:44:21.913Z,21.80
2019-05-29T21:46:57.391Z,18.70
2019-05-29T21:49:32.765Z,18.95
2019-05-29T21:52:08.530Z,21.12
2019-05-29T21:54:45.692Z,19.37
2019-05-29T21:57:21.472Z,19.17
2019-05-29T21:59:56.888Z,19.98
2019-05-29T22:02:33.620Z,16.40
2019-05-29T22:05:10.274Z,15.50
2019-05-29T22:07:46.925Z,15.40
2019-05-29T22:10:25.956Z,14.03
2019-05-29T22:13:00.577Z,13.98
2019-05-29T22:18:09.818Z,11.55
2019-05-29T22:20:45.433Z,12.43
2019-05-29T22:23:21.188Z,11.48
2019-05-29T22:25:57.386Z,10.78
2019-05-29T22:28:33.146Z,11.38
2019-05-29T22:31:08.719Z,12.82
2019-05-29T22:33:44.814Z,11.73
2019-05-29T22:36:20.250Z,11.57
2019-05-29T22:38:56.049Z,9.63
2019-05-29T22:41:31.623Z,9.18
2019-05-29T22:44:07.644Z,8.85
2019-05-29T22:46:43.058Z,10.07
2019-05-29T22:49:18.829Z,8.93
2019-05-29T22:51:55.653Z,9.05
2019-05-29T22:57:05.269Z,7.55
2019-05-29T22:59:40.927Z,7.40
2019-05-29T23:02:16.516Z,6.55
2019-05-29T23:04:52.555Z,8.30
2019-05-29T23:07:28.131Z,10.10
2019-05-29T23:10:04.311Z,11.22
2019-05-29T23:12:39.998Z,8.50
2019-05-29T23:15:15.868Z,8.35
2019-05-29T23:17:52.333Z,6.50
2019-05-29T23:20:28.015Z,7.25
2019-05-29T23:23:03.599Z,8.10
2019-05-29T23:25:39.355Z,9.33
2019-05-29T23:28:14.908Z,12.07
2019-05-29T23:30:50.564Z,8.80
2019-05-29T23:33:26.144Z,7.45
2019-05-29T23:36:03.166Z,6.33
2019-05-29T23:38:38.747Z,6.62
2019-05-29T23:41:14.462Z,8.00
2019-05-29T23:43:50.022Z,6.95
2019-05-29T23:46:25.732Z,6.90
2019-05-29T23:49:05.587Z,6.60
2019-05-29T23:51:41.183Z,6.65
2019-05-29T23:54:16.889Z,6.78
2019-05-29T23:56:53.695Z,6.47
2019-05-29T23:59:28.990Z,6.37
